To NAV CANADA Home Page Login to a new session Search on AWWS site Feedback and Comments Disclaimer Vers la page française équivalente Tips FAQ What's new on the site To the Forecasts and Observations / NOTAM section To "File a Flight Plan" website Publications and other links Update of the User's profile FIC Telephone Numbers My Weather Data Folder Route Weather Data Regional Weather Data Local Weather Data To the Forecasts and Observations / NOTAM section
Request Generated 09/01/2015 at 16:04:51 UTC . Weather information available at that time is displayed.

METAR/TAF

MONT-JOLI/QC    

METAR CYYY 011600Z 01009KT 30SM FEW030 BKN220 14/07 A3004 RMK SC1CI6
SLP173=
METAR CYYY 011500Z 36008KT 340V090 30SM BKN240 15/08 A3005 RMK CI6
SLP178=
METAR CYYY 011400Z 02005KT 360V090 15SM BKN240 13/09 A3007 RMK CI5
SLP183=

TAF CYYY 011338Z 0114/0202 02005KT P6SM SCT240
BECMG 0118/0120 VRB03KT
RMK NXT FCST BY 012000Z=
Your time UTC time
Weather data provided by Environment Canada and NAV CANADA